Date,TemperatureHighF,TemperatureAvgF,TemperatureLowF,DewpointHighF,DewpointAvgF,DewpointLowF,HumidityHigh,HumidityAvg,HumidityLow,PressureMaxIn,PressureMinIn,WindSpeedMaxMPH,WindSpeedAvgMPH,GustSpeedMaxMPH,PrecipitationSumIn
2014-1-1,25.3,19.4,12.7,9.1,4.1,1.2,67,52,37,30.35,30.14,13,3,15,0.00
2014-1-2,18.7,9.0,-1.1,13.0,4.8,-5.4,90,82,65,30.32,29.83,18,5,18,0.00
2014-1-3,11.7,3.5,-3.3,6.1,-5.2,-14.7,87,68,42,30.35,29.71,18,6,18,0.00
2014-1-4,24.4,10.9,-5.1,9.5,-6.4,-18.4,63,48,17,30.44,30.21,18,4,18,0.00
2014-1-5,37.6,28.1,15.3,32.8,15.2,4.5,99,62,34,30.28,29.90,19,2,19,0.07
2014-1-6,55.2,39.4,25.7,54.9,37.1,13.2,99,92,59,29.90,29.25,25,4,25,0.44
2014-1-7,25.7,11.6,5.9,13.6,-8.3,-17.7,60,41,27,30.16,29.47,0,0,0,0.00
2014-1-8,19.8,11.8,4.1,1.7,-4.2,-12.4,59,49,38,30.41,30.15,12,0,12,0.19
2014-1-9,28.8,19.2,13.8,4.7,2.3,-2.0,62,49,28,30.60,30.37,12,2,13,0.00
2014-1-10,34.3,25.9,13.8,33.9,21.1,3.7,99,82,61,30.55,30.23,7,2,7,0.02
2014-1-11,56.8,45.4,33.6,56.6,45.1,33.4,99,99,99,30.24,29.23,21,4,21,0.27
2014-1-12,52.3,41.7,32.7,52.1,30.9,24.1,99,67,47,29.93,29.24,21,7,21,0.05
2014-1-13,50.7,39.2,28.6,40.5,28.4,23.1,89,68,39,30.08,29.85,17,4,17,0.00
2014-1-14,47.5,45.1,40.6,46.0,43.5,39.8,99,94,81,29.86,29.58,14,3,14,0.51
2014-1-15,46.4,38.1,31.1,40.2,35.1,30.9,99,90,65,29.98,29.72,13,2,13,0.01
2014-1-16,37.8,34.3,30.7,37.5,34.0,30.3,99,99,99,29.90,29.81,4,1,4,0.00
2014-1-17,43.7,36.0,30.9,35.3,28.4,21.5,99,77,44,29.94,29.86,12,2,12,0.01
2014-1-18,33.3,31.6,29.7,33.0,29.6,24.7,99,92,77,29.88,29.59,4,0,4,0.00
2014-1-19,31.5,29.4,25.9,30.9,26.6,20.6,99,90,77,29.69,29.49,0,0,0,0.06
2014-1-20,41.5,32.1,19.9,28.8,23.2,6.7,88,71,47,29.84,29.45,18,3,18,0.06
2014-1-21,19.6,11.9,8.2,7.0,-0.7,-8.6,84,58,37,30.03,29.83,11,4,11,0.00
2014-1-22,17.4,8.9,4.3,4.8,-7.5,-12.2,83,48,28,29.85,29.61,17,6,17,0.00
2014-1-23,20.5,9.4,-0.6,-5.7,-10.9,-17.5,62,41,20,30.10,29.84,16,4,16,0.00
2014-1-24,17.2,8.9,0.9,-4.2,-12.2,-29.2,63,41,13,30.22,29.98,14,4,14,0.00
2014-1-25,35.4,22.9,10.8,25.4,9.9,-8.3,89,59,40,29.98,29.28,20,6,20,0.00
2014-1-26,23.0,17.1,11.7,15.3,-5.8,-21.4,75,39,19,29.83,29.29,26,6,26,0.00
2014-1-27,43.7,25.7,17.4,37.7,12.3,-5.0,92,59,27,29.95,29.47,23,5,23,0.02
2014-1-28,17.8,13.7,8.2,-1.0,-11.4,-21.6,44,33,19,30.25,29.94,16,4,16,0.00
2014-1-29,24.3,17.2,12.2,4.6,-10.2,-28.3,67,35,11,30.19,29.92,17,4,17,0.00
2014-1-30,29.5,18.4,9.7,6.5,-2.4,-12.3,64,41,26,30.40,30.14,10,3,11,0.00
2014-1-31,40.6,29.5,16.5,20.4,13.2,2.0,86,55,26,30.17,29.97,17,3,17,0.00
2014-2-1,45.3,35.1,27.1,27.4,19.3,13.6,79,55,32,30.31,30.00,14,2,14,0.00
2014-2-2,50.7,38.5,31.6,40.6,34.6,27.1,98,87,54,30.03,29.83,5,2,7,0.06
2014-2-3,36.5,29.8,21.6,33.7,25.0,18.1,99,84,56,30.26,30.03,9,1,9,0.00
2014-2-4,34.5,25.7,16.9,21.6,18.0,14.7,99,74,49,30.42,30.24,7,0,7,0.09
2014-2-5,28.4,25.0,21.7,25.7,22.8,20.4,99,91,75,30.27,29.61,4,0,4,0.00
2014-2-6,28.2,19.6,14.0,20.6,9.7,1.2,95,68,33,30.23,29.91,0,0,0,0.04
2014-2-7,30.4,19.5,8.1,7.8,4.1,0.2,75,53,29,30.21,30.10,14,2,14,0.01
2014-2-8,29.3,21.1,11.3,3.8,-2.5,-9.1,58,38,21,30.25,30.08,12,3,12,0.00
2014-2-9,31.6,23.9,18.5,22.3,11.4,1.2,93,61,39,30.14,29.91,10,2,10,0.00
2014-2-10,28.2,20.3,10.6,21.8,8.6,-0.2,94,64,34,30.17,29.86,21,3,21,0.00
2014-2-11,25.0,14.6,6.1,4.2,-1.8,-7.8,77,51,26,30.40,30.16,17,4,17,0.00
2014-2-12,27.9,14.6,1.8,1.1,-10.2,-28.0,59,37,10,30.53,30.37,14,3,14,0.00
2014-2-13,32.2,23.7,15.3,31.9,19.4,1.1,99,84,53,30.37,29.01,18,5,21,0.00
2014-2-14,32.7,30.4,26.2,32.1,27.2,21.3,99,88,75,29.69,28.81,11,0,12,0.00
2014-2-15,34.9,28.1,21.9,28.3,24.8,19.0,99,88,67,29.82,29.47,0,0,0,0.01
2014-2-16,32.0,24.9,19.0,28.0,9.3,1.0,99,54,30,29.94,29.46,18,2,18,0.00
2014-2-17,27.9,18.1,9.3,2.8,-11.1,-27.6,48,30,12,30.33,29.93,24,6,24,0.00
2014-2-18,25.0,16.7,7.7,24.5,9.2,-7.9,98,74,46,30.33,29.88,8,1,8,0.00
2014-2-19,36.1,26.9,16.3,30.7,24.0,14.5,99,89,67,30.06,29.70,0,0,0,0.00
2014-2-20,47.8,36.1,26.4,32.9,26.8,17.3,99,74,33,30.20,29.80,17,1,17,0.24
2014-2-21,42.3,35.3,32.4,42.0,35.0,31.0,99,99,94,30.13,29.64,8,2,8,0.21
2014-2-22,51.4,39.6,30.4,38.7,26.7,14.3,99,67,26,29.93,29.80,21,4,21,0.01
2014-2-23,48.4,40.0,32.4,29.0,23.6,20.3,69,54,36,29.96,29.73,11,2,12,0.00
2014-2-24,38.5,29.8,20.3,26.3,9.6,-1.2,64,44,29,29.91,29.70,23,7,23,0.00
2014-2-25,28.2,20.5,15.3,8.8,2.7,-4.0,63,47,29,29.94,29.83,20,5,20,0.00
2014-2-26,31.5,17.8,8.1,7.1,-2.8,-21.4,69,44,18,29.90,29.71,20,4,20,0.00
2014-2-27,27.9,16.6,6.6,16.2,-2.8,-13.4,72,44,21,29.86,29.54,21,4,21,0.00
2014-2-28,24.4,14.2,5.4,-7.7,-18.8,-33.6,46,26,10,30.40,29.86,20,5,20,0.00
2014-3-1,34.5,21.5,5.4,18.0,-0.1,-16.9,64,42,19,30.41,30.04,17,3,17,0.00
2014-3-2,40.5,32.5,25.7,24.0,17.9,10.2,74,56,43,30.04,29.93,10,2,10,0.00
2014-3-3,25.7,18.7,9.1,10.2,-3.6,-15.8,54,39,21,30.26,29.97,11,4,15,0.00
2014-3-4,29.5,18.2,4.3,2.0,-8.4,-21.1,55,33,14,30.34,30.20,11,2,11,0.00
2014-3-5,25.3,21.3,14.9,16.7,11.8,1.2,80,67,40,30.47,30.20,10,2,10,0.00
2014-3-6,32.2,17.6,5.2,1.2,-13.0,-29.5,54,32,10,30.60,30.47,9,2,10,0.00
2014-3-7,41.0,24.5,6.3,23.2,6.4,-4.6,74,49,24,30.47,29.92,11,2,11,0.00
2014-3-8,54.0,37.2,23.0,24.3,19.2,11.6,82,54,23,29.93,29.66,17,3,17,0.00
2014-3-9,40.5,31.8,25.7,12.2,3.6,-14.6,53,34,12,29.91,29.83,13,4,17,0.00
2014-3-10,45.0,34.3,26.2,25.6,18.6,5.3,87,55,36,29.86,29.59,11,2,11,0.01
2014-3-11,56.1,43.3,33.1,34.1,26.2,16.7,91,56,25,29.70,29.47,16,4,16,0.00
2014-3-12,45.0,38.7,34.9,38.3,32.4,25.0,99,79,55,29.70,29.02,10,2,11,0.33
2014-3-13,34.7,20.0,14.0,34.5,9.4,-6.3,99,66,37,29.90,28.98,17,0,17,0.01
2014-3-14,38.5,24.2,7.5,22.2,3.3,-6.7,62,43,20,30.13,29.86,18,3,18,0.01
2014-3-15,55.9,42.4,33.8,37.0,26.7,15.6,90,57,28,29.86,29.62,29,6,29,0.01
2014-3-16,36.1,28.6,20.7,15.8,-1.9,-24.9,63,31,10,30.17,29.85,19,7,19,0.00
2014-3-17,45.7,20.8,13.1,-4.9,-14.1,-26.8,37,24,10,30.17,30.01,12,4,12,18.14
2014-3-18,40.3,21.3,12.6,40.3,-2.4,-19.7,63,35,10,30.32,30.04,4,1,4,0.00
2014-3-19,43.7,36.2,20.3,29.4,23.6,15.3,86,62,39,30.37,29.96,53,3,53,0.00
2014-3-20,48.9,39.7,32.9,42.0,30.8,22.7,99,75,41,29.98,29.58,21,5,21,0.47
2014-3-21,41.4,36.4,29.1,24.9,19.0,15.2,64,51,38,30.00,29.70,20,7,20,0.00
2014-3-22,54.0,36.9,25.2,34.4,21.2,16.2,74,56,27,30.03,29.62,27,5,27,0.02
2014-3-23,41.4,33.9,21.4,22.0,8.9,-14.6,68,41,12,30.05,29.88,17,5,17,0.00
2014-3-24,32.4,21.8,13.5,-1.0,-11.0,-26.0,44,27,10,30.14,30.01,16,5,16,0.00
2014-3-25,38.5,27.1,14.9,12.2,2.4,-8.9,61,39,17,30.11,29.90,17,3,17,0.00
2014-3-26,34.5,28.9,21.7,14.9,2.7,-12.0,55,36,16,29.99,29.58,31,10,31,0.00
2014-3-27,44.8,30.0,18.0,7.2,-10.6,-23.4,34,21,10,30.29,29.99,18,6,18,0.00
2014-3-28,55.2,43.7,34.0,49.4,31.8,7.0,99,66,33,30.21,29.91,14,5,14,0.02
2014-3-29,51.4,44.5,38.5,49.7,39.2,34.8,99,83,58,30.23,29.96,10,3,14,0.46
2014-3-30,39.7,37.9,34.9,39.1,37.7,34.6,99,99,99,29.98,29.63,20,6,20,1.42
2014-3-31,40.6,36.0,32.9,36.8,32.3,26.6,99,87,66,29.99,29.67,16,5,16,0.91
2014-4-1,56.5,42.1,31.3,29.7,26.1,22.6,78,56,31,30.08,29.98,11,4,11,0.00
2014-4-2,61.2,44.3,33.3,30.8,27.1,19.2,81,56,25,30.10,29.98,11,2,11,0.00
2014-4-3,57.2,43.2,32.2,30.6,19.7,5.8,86,46,17,30.11,30.01,17,3,17,0.00
2014-4-4,50.9,40.4,34.2,35.3,27.6,22.6,95,63,36,30.14,29.88,11,3,11,0.21
2014-4-5,50.9,41.1,36.0,44.2,31.9,20.1,99,74,37,29.90,29.67,19,6,21,0.14
2014-4-6,60.1,43.9,32.7,21.7,11.8,-8.9,59,35,10,30.15,29.89,19,4,19,0.00
2014-4-7,61.9,48.7,35.4,38.5,16.3,-8.0,86,35,10,30.21,29.88,16,3,16,0.04
2014-4-8,67.1,52.0,42.4,59.8,45.9,31.7,99,83,48,29.90,29.26,25,5,25,0.26
2014-4-9,55.4,46.1,35.2,35.4,22.2,-6.8,86,47,13,29.93,29.48,21,5,21,0.00
2014-4-10,63.7,46.8,29.7,30.1,12.1,-4.6,54,31,10,30.12,29.93,24,6,24,0.00
2014-4-11,71.6,56.9,48.6,52.6,39.1,30.1,92,56,32,29.99,29.87,21,4,21,0.08
2014-4-12,60.8,49.7,41.9,49.4,38.6,21.9,99,74,28,30.17,29.96,8,2,8,0.04
2014-4-13,60.6,50.6,44.6,46.3,38.9,27.2,92,66,40,30.25,30.00,9,3,9,0.05
2014-4-14,78.3,61.4,41.7,56.9,48.9,39.4,99,68,38,30.01,29.82,27,8,27,0.00
2014-4-15,66.6,60.8,41.2,62.6,58.5,40.7,99,93,79,29.86,29.51,30,9,30,0.64
2014-4-16,45.3,35.5,27.9,40.9,20.0,5.1,99,59,25,30.58,29.70,18,4,18,0.35
2014-4-17,45.0,34.6,26.2,23.8,19.0,13.5,77,54,38,30.78,30.58,14,4,14,0.00
2014-4-18,49.1,37.0,25.7,32.2,28.1,23.0,92,72,45,30.63,30.22,11,2,11,0.00
2014-4-19,61.5,47.4,33.1,35.9,27.1,15.2,96,54,21,30.39,30.13,19,5,19,0.00
2014-4-20,57.9,44.9,33.6,45.5,21.8,0.6,79,47,14,30.49,30.30,11,3,11,0.00
2014-4-21,75.9,53.7,34.2,31.3,16.6,-1.4,76,38,10,30.30,29.80,14,4,14,0.00
2014-4-22,77.2,61.0,46.9,52.5,35.5,20.1,90,47,17,29.80,29.44,17,4,17,0.02
2014-4-23,55.4,51.1,45.1,52.5,43.4,29.8,99,77,53,29.61,29.40,23,6,23,0.41
2014-4-24,57.6,48.0,39.7,29.8,19.7,12.1,55,36,21,29.90,29.59,30,10,30,0.00
2014-4-25,45.7,45.7,45.7,24.7,24.7,24.7,45,45,45,29.98,29.78,3,3,3,0.00
2014-4-26,45.7,45.7,45.7,24.7,24.7,24.7,45,45,45,29.85,29.75,3,3,3,0.00
2014-4-27,50.9,46.0,42.1,43.0,28.2,24.7,80,52,45,30.01,29.81,11,3,11,0.00
2014-4-28,58.8,48.8,38.7,40.4,36.3,31.8,86,65,41,30.19,29.94,12,4,12,0.00
2014-4-29,46.2,42.4,39.7,39.0,35.4,32.5,85,76,64,30.49,30.19,16,4,16,0.00
2014-4-30,47.1,41.7,39.4,41.2,38.4,35.8,99,88,72,30.50,30.13,8,2,8,0.39
2014-5-1,65.3,50.8,41.0,59.4,49.6,40.7,99,96,80,30.13,29.61,9,2,9,0.41
2014-5-2,70.0,58.0,47.3,55.3,41.2,31.0,99,59,30,29.77,29.62,17,4,17,0.01
2014-5-3,68.0,57.9,46.0,44.9,39.9,29.4,76,55,28,29.81,29.66,24,2,24,0.00
2014-5-4,61.2,53.8,47.3,45.6,38.5,29.5,82,59,34,29.67,29.48,23,7,23,0.01
2014-5-5,64.8,56.3,48.6,43.5,38.9,33.4,76,55,36,29.83,29.56,20,6,20,0.00
2014-5-6,64.2,53.3,41.2,40.0,29.0,13.2,85,47,19,30.00,29.79,17,4,17,0.00
2014-5-7,69.3,56.3,40.6,32.0,17.6,-2.9,60,31,10,30.14,29.99,18,3,18,0.00
2014-5-8,73.8,59.0,43.9,50.1,31.1,17.9,80,40,17,30.14,30.00,9,2,9,0.00
2014-5-9,55.9,52.4,50.0,51.7,48.3,44.1,99,87,72,30.20,30.03,7,1,7,0.02
2014-5-10,81.5,65.8,51.4,68.7,60.4,51.2,99,86,43,30.03,29.69,15,3,15,0.13
2014-5-11,79.9,69.4,60.6,61.3,32.7,7.2,91,38,10,29.99,29.73,15,5,15,0.00
2014-5-12,86.9,71.9,54.0,43.3,33.0,12.7,61,32,10,30.09,29.91,21,3,21,0.00
2014-5-13,55.9,50.8,46.2,44.8,41.9,36.6,83,72,60,30.29,30.09,11,2,12,0.00
2014-5-14,73.2,57.6,45.3,52.2,45.0,37.2,88,66,37,30.30,30.19,13,2,13,0.00
2014-5-15,80.6,67.7,58.5,63.8,59.7,50.4,97,77,53,30.24,30.15,17,4,17,0.00
2014-5-16,72.7,66.0,63.9,66.0,63.8,62.1,99,93,75,30.16,29.92,16,4,16,0.19
2014-5-17,74.7,65.9,54.9,65.2,51.4,33.5,99,67,30,30.02,29.78,14,4,14,0.41
2014-5-18,71.4,59.7,47.5,44.5,35.6,22.4,77,47,21,30.07,29.96,13,3,13,0.00
2014-5-19,66.9,57.0,47.8,47.8,35.7,27.6,83,48,27,30.05,29.96,17,4,17,0.00
2014-5-20,75.7,61.6,50.0,48.0,41.4,31.4,84,54,25,29.98,29.88,16,4,16,0.00
2014-5-21,76.3,61.5,48.0,53.3,49.2,38.7,97,68,30,29.96,29.86,8,2,8,0.00
2014-5-22,68.7,57.2,50.9,58.1,54.6,50.6,99,92,62,29.91,29.82,5,1,5,0.22
2014-5-23,61.2,56.1,51.3,60.9,54.5,49.8,99,95,81,29.95,29.82,5,1,5,0.05
2014-5-24,66.6,56.3,50.5,59.9,52.6,50.0,99,89,59,30.01,29.91,8,2,8,0.12
2014-5-25,72.3,60.5,51.8,59.8,54.8,49.9,99,84,51,30.05,29.94,8,1,8,0.00
2014-5-26,78.1,66.9,54.3,59.7,55.9,52.4,99,72,45,29.95,29.75,17,2,17,0.02
2014-5-27,72.1,60.0,47.1,62.3,54.1,46.9,99,82,62,29.92,29.76,8,2,10,0.52
2014-5-28,49.3,47.2,42.4,49.0,46.9,42.2,99,99,98,30.18,29.88,11,2,11,0.06
2014-5-29,69.8,53.7,41.2,51.9,42.3,35.1,99,71,34,30.21,30.10,7,2,7,0.01
2014-5-30,76.6,59.3,45.5,54.9,48.6,40.0,98,73,31,30.10,29.93,11,2,11,0.00
2014-5-31,67.1,56.6,49.3,53.7,46.2,27.3,99,72,39,30.26,30.01,11,2,11,0.00
2014-6-1,78.3,62.3,45.5,54.2,43.0,32.6,97,58,23,30.30,30.18,7,2,8,0.00
2014-6-2,83.3,69.4,52.5,56.1,47.2,39.1,75,51,26,30.18,29.94,14,3,14,0.00
2014-6-3,85.6,69.2,57.6,61.6,55.6,48.6,87,66,33,29.98,29.84,8,2,8,0.00
2014-6-4,66.0,61.4,55.9,59.9,56.4,47.1,97,84,61,29.86,29.73,6,1,6,0.04
2014-6-5,63.0,58.9,56.5,62.7,58.6,56.2,99,99,96,29.75,29.61,8,1,8,0.47
2014-6-6,75.2,64.4,55.9,59.2,55.5,51.7,99,76,47,29.83,29.65,13,3,13,0.00
2014-6-7,83.3,70.4,54.7,59.9,54.5,49.4,95,63,35,29.90,29.82,11,2,11,0.00
2014-6-8,85.8,73.4,60.1,60.3,54.9,45.6,83,58,29,29.91,29.81,8,2,8,0.00
2014-6-9,81.0,69.8,62.2,64.8,59.3,54.8,91,71,52,29.94,29.85,11,2,11,0.00
2014-6-10,81.9,68.3,59.9,70.2,64.0,57.2,99,87,64,30.08,29.88,10,2,10,0.12
2014-6-11,75.4,63.6,55.6,57.5,52.2,45.9,96,70,39,30.15,30.06,11,2,11,0.00
2014-6-12,70.5,62.9,57.7,61.6,57.7,51.8,95,84,71,30.12,30.02,5,1,5,0.00
2014-6-13,63.0,60.6,58.8,62.7,60.0,58.4,99,98,92,30.02,29.75,7,2,7,0.89
2014-6-14,74.5,64.6,58.3,68.2,60.4,52.7,99,87,65,29.87,29.75,9,2,9,0.01
2014-6-15,78.3,66.9,54.0,59.0,52.9,47.3,94,65,39,30.02,29.86,14,4,14,0.00
2014-6-16,80.8,68.8,55.2,55.9,49.0,34.3,86,56,24,30.11,29.96,11,2,11,0.00
2014-6-17,86.9,75.3,63.3,71.7,62.4,54.3,88,67,43,30.01,29.80,12,3,12,0.00
2014-6-18,84.6,76.2,68.0,69.9,64.4,57.5,99,70,47,29.90,29.67,17,5,17,0.04
2014-6-19,82.0,74.1,61.3,64.1,50.6,24.9,91,52,19,29.94,29.85,12,3,12,0.00
2014-6-20,75.9,65.3,55.4,50.7,41.8,27.7,73,48,21,29.94,29.84,17,4,17,0.00
2014-6-21,76.1,63.1,50.4,49.6,45.3,41.6,83,56,34,29.93,29.83,11,2,11,0.00
2014-6-22,77.4,64.9,51.3,52.8,48.9,44.5,88,60,36,30.00,29.88,10,2,10,0.00
2014-6-23,84.2,68.2,54.1,59.9,52.3,47.7,95,62,34,30.12,29.99,11,2,11,0.00
2014-6-24,84.6,70.9,58.8,61.0,55.9,47.6,88,62,42,30.12,29.94,15,4,15,0.00
2014-6-25,97.2,76.5,64.9,71.1,64.9,54.2,86,69,51,29.96,29.80,14,4,14,0.00
2014-6-26,81.7,71.1,59.7,74.5,68.1,58.1,99,91,77,29.98,29.74,14,2,14,0.48
2014-6-27,80.4,68.4,58.3,62.0,52.4,38.2,99,64,35,30.17,29.97,9,2,9,0.01
2014-6-28,86.5,71.6,57.0,63.2,49.4,35.1,91,52,22,30.23,30.16,8,1,8,0.00
2014-6-29,87.4,74.1,60.1,65.1,58.5,50.9,86,63,34,30.21,30.03,14,2,14,0.00
2014-6-30,88.2,76.1,62.6,65.1,61.1,55.5,78,63,42,30.05,29.86,10,3,11,0.00
2014-7-1,89.4,78.6,67.5,73.4,68.5,62.4,89,73,55,29.88,29.72,15,4,15,0.00
2014-7-2,92.8,79.4,71.6,77.2,71.8,67.2,99,79,59,29.88,29.75,25,4,25,0.02
2014-7-3,89.6,77.1,70.3,79.5,73.6,69.8,99,90,62,29.98,29.83,12,2,12,0.34
2014-7-4,76.3,68.6,62.8,73.2,67.7,62.5,99,97,83,29.96,29.76,11,2,11,0.83
2014-7-5,79.5,68.7,57.4,62.5,51.5,37.3,99,62,29,29.95,29.74,24,6,24,0.24
2014-7-6,83.7,73.5,62.1,60.8,53.0,47.3,71,52,34,29.95,29.81,21,4,21,0.00
2014-7-7,87.3,74.8,68.0,72.7,66.5,60.6,99,78,49,29.83,29.64,34,4,34,0.21
2014-7-8,88.2,78.5,68.5,74.4,70.1,67.5,99,78,54,29.75,29.62,19,4,19,0.08
2014-7-9,86.9,78.8,67.1,71.5,65.6,58.2,93,68,42,29.93,29.59,14,4,14,0.21
2014-7-10,80.4,71.6,63.9,65.3,60.6,52.8,99,73,42,30.11,29.88,10,1,10,0.01
2014-7-11,82.6,70.3,61.0,61.1,57.6,53.1,94,68,41,30.20,30.11,6,1,6,0.00
2014-7-12,87.1,73.4,58.6,65.2,59.7,52.3,99,67,37,30.19,30.06,8,1,8,0.00
2014-7-13,86.4,75.7,66.9,69.9,64.6,60.1,99,71,50,30.07,29.84,19,5,19,0.02
2014-7-14,87.6,77.4,70.2,75.5,72.0,67.0,99,86,53,29.87,29.80,12,3,12,0.01
2014-7-15,89.2,77.1,72.1,79.8,74.1,70.7,99,92,60,29.83,29.69,14,3,14,0.93
2014-7-16,78.1,73.1,68.7,75.3,71.3,64.5,99,94,82,29.81,29.71,8,2,8,0.02
2014-7-17,81.5,71.5,63.1,64.5,59.7,52.7,91,70,41,30.03,29.81,11,2,11,0.00
2014-7-18,81.3,70.3,59.2,61.5,57.6,49.5,96,68,40,30.19,30.03,9,2,9,0.00
2014-7-19,79.7,69.1,60.6,66.5,62.8,59.6,99,82,61,30.24,30.17,4,1,4,0.00
2014-7-20,80.1,69.3,60.4,64.0,59.4,50.2,99,75,40,30.18,30.10,7,1,7,0.00
2014-7-21,82.2,69.9,60.4,64.2,60.4,53.9,99,76,42,30.17,30.09,7,2,7,0.00
2014-7-22,90.0,76.7,62.2,71.3,65.6,60.6,99,73,45,30.11,29.93,9,2,9,0.00
2014-7-23,91.6,79.8,70.0,75.2,71.4,66.9,99,78,52,29.94,29.68,15,3,15,0.09
2014-7-24,79.2,72.0,65.5,71.4,67.9,60.3,99,88,64,29.88,29.71,8,1,8,0.01
2014-7-25,81.7,69.8,55.9,61.8,57.6,53.5,92,69,42,29.95,29.86,10,2,10,0.00
2014-7-26,83.7,72.5,61.7,65.6,59.4,50.6,95,68,37,29.94,29.82,12,3,12,0.00
2014-7-27,77.7,71.2,65.7,73.5,69.5,64.1,99,95,79,29.85,29.62,18,3,18,0.25
2014-7-28,82.4,72.0,64.2,77.2,69.5,63.9,99,93,69,29.64,29.39,17,2,17,0.38
2014-7-29,77.7,68.4,60.1,63.9,59.4,54.1,99,76,49,29.90,29.50,10,2,10,0.01
2014-7-30,78.6,68.5,61.0,64.4,58.8,49.7,95,74,43,30.00,29.90,7,1,7,0.00
2014-7-31,81.7,70.2,58.3,63.9,59.4,56.0,96,72,46,30.12,29.99,14,2,14,0.00
2014-8-1,86.2,72.0,63.7,70.1,66.5,62.4,99,85,53,30.18,30.11,13,2,13,0.02
2014-8-2,73.8,68.4,61.9,70.4,65.0,59.5,99,90,67,30.19,30.08,8,1,8,0.00
2014-8-3,75.9,66.5,58.8,66.3,62.4,58.5,99,88,66,30.10,30.00,4,1,4,0.00
2014-8-4,85.8,71.7,61.3,74.5,66.4,60.9,99,87,48,30.01,29.94,11,1,11,0.22
2014-8-5,87.6,76.0,65.8,72.2,66.1,56.3,99,76,42,29.99,29.84,10,1,10,0.00
2014-8-6,81.0,73.1,65.5,67.6,61.0,42.6,97,70,31,29.85,29.74,11,2,11,0.00
2014-8-7,79.0,66.6,58.6,63.6,56.6,52.6,88,72,46,29.90,29.80,10,2,10,0.05
2014-8-8,82.4,69.0,55.9,61.5,55.8,48.1,98,68,36,29.99,29.89,12,2,12,0.00
2014-8-9,84.9,72.0,60.1,62.3,58.1,49.8,89,66,34,30.05,29.97,8,2,8,0.00
2014-8-10,87.3,72.8,60.8,62.7,57.2,47.1,91,64,30,30.10,30.03,8,2,8,0.00
2014-8-11,88.3,73.1,61.5,67.4,61.1,54.4,98,70,36,30.11,30.03,13,2,13,0.00
2014-8-12,83.3,72.1,62.6,67.1,61.9,54.9,99,74,45,30.09,29.98,12,2,12,0.00
2014-8-13,69.6,65.8,61.9,66.8,65.0,61.6,99,97,86,29.98,29.56,11,2,11,1.63
2014-8-14,75.0,65.3,57.7,61.6,54.9,46.2,99,73,42,29.83,29.62,12,3,12,0.00
2014-8-15,74.5,63.0,56.7,58.5,54.9,48.1,98,77,46,29.88,29.79,10,2,10,0.00
2014-8-16,76.6,66.7,57.2,58.4,54.5,48.0,91,68,40,29.93,29.86,11,2,11,0.00
2014-8-17,77.4,68.1,60.1,63.4,59.2,53.6,99,75,58,29.86,29.72,13,2,13,0.00
2014-8-18,76.1,65.7,56.5,58.4,53.3,46.5,95,69,40,29.85,29.75,14,3,14,0.00
2014-8-19,77.2,64.6,52.5,58.0,52.8,48.0,93,70,39,29.92,29.82,8,1,8,0.00
2014-8-20,82.6,66.9,55.6,63.9,57.3,53.8,99,75,42,30.02,29.91,5,1,7,0.00
2014-8-21,75.2,65.1,56.7,64.6,60.5,56.4,99,87,56,30.06,30.01,4,1,4,0.00
2014-8-22,70.3,63.6,59.5,68.6,62.3,59.3,99,96,84,30.07,30.03,5,1,8,0.31
2014-8-23,74.7,65.5,58.5,63.4,59.1,55.1,99,82,60,30.09,30.05,9,2,9,0.00
2014-8-24,80.4,68.3,55.6,65.4,59.1,55.3,99,76,49,30.11,30.06,7,1,7,0.00
2014-8-25,87.3,73.8,61.5,66.1,61.3,52.8,93,70,36,30.12,30.05,7,2,7,0.00
2014-8-26,88.3,74.8,62.1,71.5,64.3,57.3,99,75,39,30.12,29.98,8,1,8,0.00
2014-8-27,89.1,76.2,64.0,71.8,68.0,62.9,98,78,54,30.00,29.80,11,2,11,0.00
2014-8-28,65.5,63.0,61.3,50.3,49.7,48.9,66,63,57,29.96,29.91,8,3,8,0.00
2014-8-29,77.0,65.9,55.2,58.7,54.8,49.7,92,70,45,30.23,29.95,7,2,7,0.00
2014-8-30,77.0,65.9,54.5,62.5,57.6,53.6,99,78,48,30.26,30.07,14,3,14,0.00
2014-8-31,82.8,73.9,64.4,75.1,70.1,62.0,99,89,72,30.08,29.89,15,3,15,0.27
2014-9-1,87.4,77.4,70.0,76.6,71.3,66.6,99,84,55,29.95,29.85,10,2,10,0.01
2014-9-2,90.1,78.8,70.5,77.2,73.8,70.2,99,87,57,29.89,29.67,11,2,11,0.04
2014-9-3,81.0,73.9,66.9,74.0,62.4,51.9,99,71,41,30.04,29.65,12,3,14,0.00
2014-9-4,84.0,72.7,60.8,63.3,59.7,53.1,93,68,41,30.16,30.04,9,2,10,0.00
2014-9-5,87.8,76.3,64.2,73.3,67.8,61.9,96,77,51,30.11,29.92,13,3,17,0.00
2014-9-6,89.8,79.5,71.1,77.0,73.5,67.2,99,84,56,29.92,29.70,21,4,21,0.21
2014-9-7,74.8,66.9,61.0,63.5,51.1,45.9,99,60,38,29.88,29.68,6,0,6,0.00
2014-9-8,75.9,63.6,53.8,63.5,53.7,50.1,99,74,46,30.06,29.84,5,1,5,0.00
2014-9-9,71.6,62.2,52.2,58.5,53.7,47.1,99,77,48,30.04,29.91,4,2,4,0.00
2014-9-10,71.8,63.8,58.1,61.6,59.8,57.8,99,88,64,29.85,29.71,4,1,4,0.00
2014-9-11,75.0,68.8,59.5,69.8,65.5,59.3,99,90,79,29.71,29.44,11,3,11,0.00
2014-9-12,68.4,60.8,52.2,59.9,51.6,45.9,91,74,51,29.91,29.57,8,3,8,0.00
2014-9-13,64.2,55.6,47.3,57.1,52.1,44.5,99,89,73,30.12,29.83,7,2,7,0.01
2014-9-14,63.1,54.6,47.7,56.0,48.0,42.3,99,81,49,30.19,30.05,11,2,12,0.00
2014-9-15,64.4,54.9,42.4,51.7,45.2,40.4,99,73,45,30.21,30.05,9,2,9,0.00
2014-9-16,62.8,55.3,50.2,60.0,53.6,48.5,99,94,86,30.06,29.90,5,0,5,0.00
2014-9-17,69.6,56.2,48.6,55.9,49.8,43.1,99,84,42,29.97,29.89,8,1,8,0.00
2014-9-18,72.7,59.7,48.6,52.4,48.3,42.9,94,70,41,30.11,29.88,11,2,11,0.00
2014-9-19,58.1,49.3,40.8,43.3,35.7,26.0,95,64,33,30.37,30.10,9,2,11,0.00
2014-9-20,70.3,56.3,38.5,57.0,48.7,36.3,95,77,60,30.35,30.03,15,3,15,0.00
2014-9-21,79.9,67.5,55.2,75.4,65.5,54.1,99,94,75,30.03,29.51,19,2,19,0.77
2014-9-22,71.2,63.3,49.1,67.3,52.2,39.3,99,71,43,30.04,29.47,16,4,16,0.00
2014-9-23,68.5,55.4,42.3,51.2,44.9,39.6,95,71,43,30.39,30.04,11,2,11,0.00
2014-9-24,68.7,56.9,48.0,58.1,51.4,47.8,99,84,57,30.58,30.39,7,1,7,0.00
2014-9-25,62.6,53.8,46.0,56.3,50.9,45.8,99,91,69,30.51,30.21,4,0,4,0.00
2014-9-26,74.1,61.0,49.1,61.0,54.6,48.8,99,82,55,30.21,30.09,8,2,8,0.00
2014-9-27,81.1,67.8,54.0,62.0,57.8,52.8,99,75,41,30.15,30.07,8,1,8,0.00
2014-9-28,84.2,71.3,58.6,68.0,62.2,58.4,99,77,46,30.11,29.92,10,1,10,0.00
2014-9-29,76.8,64.1,56.1,65.2,59.5,55.8,99,87,55,30.00,29.89,8,1,8,0.01
2014-9-30,57.7,56.1,54.9,57.5,55.8,54.6,99,99,99,30.01,29.95,7,1,7,0.14
2014-10-1,57.0,56.2,55.8,56.7,55.9,55.5,99,99,99,30.08,29.97,10,2,10,0.33
2014-10-2,57.2,54.1,49.5,56.9,53.8,49.0,99,99,96,30.14,30.06,8,2,8,0.27
2014-10-3,63.5,52.8,44.4,56.7,50.2,44.2,99,92,71,30.11,29.85,50,2,50,0.01
2014-10-4,62.1,57.4,52.2,61.8,57.1,51.9,99,99,99,29.86,29.47,50,1,50,0.20
2014-10-5,68.4,53.2,3.0,60.5,45.3,-2.4,99,78,44,29.89,29.49,78,2,78,0.01
2014-10-6,65.7,52.9,39.7,50.6,43.4,38.1,99,74,40,30.10,29.89,15,2,15,0.00
2014-10-7,73.4,62.0,49.3,64.1,56.4,49.0,99,84,50,30.10,29.91,18,3,18,0.01
2014-10-8,71.6,63.5,-5.6,63.8,53.9,-15.6,99,74,44,29.92,29.64,99,4,103,0.02
2014-10-9,63.1,55.0,46.9,41.8,36.7,28.3,72,53,32,29.94,29.82,17,3,17,0.00
2014-10-10,60.6,52.6,45.3,41.1,38.2,33.5,78,61,40,30.09,29.93,12,2,12,0.00
2014-10-11,50.2,46.4,43.5,49.6,44.1,16.2,99,92,35,30.09,30.01,4,0,4,12.28
2014-10-12,59.2,48.6,38.1,50.7,41.6,23.5,99,80,49,30.25,30.08,100,2,100,0.00
2014-10-13,60.8,51.4,38.1,55.4,47.7,37.9,99,88,73,30.31,30.19,11,1,11,0.00
2014-10-14,76.5,65.3,55.2,67.5,61.3,54.1,99,88,67,30.20,30.09,16,3,16,0.00
2014-10-15,79.3,68.8,61.3,71.2,65.6,61.1,99,91,68,30.10,29.92,17,2,17,0.00
2014-10-16,74.3,67.9,61.7,72.2,67.5,39.7,99,99,35,29.92,29.60,8,1,8,0.64
2014-10-17,71.6,63.0,-6.7,64.1,57.6,-17.0,99,84,54,29.65,29.54,12,3,12,0.01
2014-10-18,69.3,60.3,6.3,62.9,56.9,29.6,99,88,31,29.61,29.44,25,4,25,0.38
2014-10-19,55.2,49.4,37.8,50.4,36.8,-48.6,85,64,48,29.91,29.53,65,5,65,0.19
2014-10-20,55.9,45.3,34.2,40.4,31.6,24.0,80,61,39,30.00,29.90,16,3,16,0.00
2014-10-21,62.4,51.8,15.4,56.6,49.2,14.3,99,91,76,29.96,29.85,49,2,49,12.07
2014-10-22,51.6,49.2,13.6,51.3,48.8,-6.9,99,99,35,30.01,29.78,17,5,17,0.43
2014-10-23,52.3,49.6,46.8,52.1,49.3,46.5,99,99,99,29.79,29.57,108,5,108,2.83
2014-10-24,52.5,49.5,45.0,50.3,47.4,42.9,99,93,84,29.70,29.62,13,3,13,0.13
2014-10-25,63.9,52.8,42.4,48.0,44.2,39.2,97,76,43,29.70,29.44,11,2,11,0.00
2014-10-26,57.7,51.4,43.9,47.8,42.0,35.1,89,71,49,29.65,29.38,17,4,17,0.00
2014-10-27,60.4,50.4,41.5,41.7,39.5,36.0,89,69,43,29.98,29.64,14,3,14,0.00
2014-10-28,65.5,51.1,39.7,52.4,46.3,39.1,99,85,59,30.02,29.88,8,1,8,0.00
2014-10-29,68.7,55.2,49.3,64.5,52.9,45.2,99,93,60,29.89,29.72,13,1,13,0.11
2014-10-30,55.9,47.6,40.8,48.8,41.9,37.1,99,83,53,29.95,29.82,11,1,11,0.00
2014-10-31,53.2,46.0,40.6,41.4,39.1,37.1,96,78,59,30.01,29.91,7,1,7,0.00
2014-11-1,43.3,40.6,22.5,42.5,38.3,22.2,99,92,78,29.92,29.75,18,4,18,0.50
2014-11-2,40.8,38.9,36.9,38.0,27.0,12.2,99,66,35,29.80,29.59,26,8,26,0.01
2014-11-3,51.4,41.5,33.3,30.7,12.4,-11.8,66,37,10,30.01,29.77,20,5,20,0.00
2014-11-4,62.2,50.0,39.0,39.3,32.6,24.1,78,55,28,30.08,29.93,12,2,12,0.00
2014-11-5,63.9,54.0,44.6,44.3,37.1,23.5,73,56,27,30.07,29.88,14,3,14,0.00
2014-11-6,48.7,45.9,43.3,47.6,41.8,34.7,99,86,68,30.06,29.44,6,1,6,0.33
2014-11-7,47.1,42.8,36.9,46.7,37.3,23.3,99,82,58,29.74,29.41,21,6,21,0.04
2014-11-8,47.1,38.8,32.0,31.0,24.4,18.1,76,58,35,29.91,29.74,11,3,14,0.00
2014-11-9,53.1,43.5,37.4,36.9,33.8,31.0,81,70,49,29.96,29.81,8,2,8,0.00
2014-11-10,59.0,45.2,33.1,38.8,33.2,28.0,92,67,35,30.15,29.96,8,1,8,0.00
2014-11-11,61.9,48.9,36.0,53.9,45.9,35.0,99,90,69,30.14,29.92,11,2,11,0.00
2014-11-12,62.6,53.8,41.9,59.2,49.6,31.8,99,87,52,29.96,29.71,12,2,12,0.00
2014-11-13,49.1,41.6,31.6,34.7,29.0,24.2,95,64,40,30.03,29.90,7,2,8,0.12
2014-11-14,43.0,34.7,26.8,36.6,26.8,15.1,99,77,37,30.04,29.84,13,2,16,0.17
2014-11-15,38.7,30.1,23.7,24.6,16.8,7.4,88,61,30,30.28,30.04,16,2,16,0.00
2014-11-16,42.6,33.6,23.5,28.1,22.8,15.9,82,66,44,30.32,30.06,12,2,12,0.00
2014-11-17,37.8,36.5,34.5,37.5,34.8,27.6,99,94,70,30.06,29.39,6,2,6,1.12
2014-11-18,38.3,31.4,23.7,38.0,17.8,1.3,99,62,31,29.85,29.40,21,6,21,0.00
2014-11-19,36.1,27.1,21.4,12.5,6.8,2.3,53,44,28,30.07,29.84,15,4,15,0.00
2014-11-20,45.0,33.8,26.6,20.8,15.5,9.6,65,49,31,29.99,29.69,18,4,18,0.00
2014-11-21,34.0,27.3,21.2,16.0,8.3,2.3,64,46,31,30.36,29.85,17,5,17,0.00
2014-11-22,42.8,31.9,19.0,17.3,8.0,-8.2,73,42,15,30.36,29.98,19,4,19,0.00
2014-11-23,58.6,47.6,38.7,38.4,31.6,17.3,69,55,44,30.08,29.98,12,3,12,0.00
2014-11-24,65.1,56.1,41.0,64.7,53.5,32.7,99,91,69,30.03,29.48,21,5,21,0.34
2014-11-25,61.5,54.5,41.5,58.0,42.5,28.5,99,68,38,30.07,29.63,10,3,10,0.00
2014-11-26,43.3,36.8,31.8,33.5,31.7,30.2,99,84,62,30.16,29.65,8,1,8,0.04
2014-11-27,35.8,32.0,28.2,35.5,31.2,26.8,99,97,91,29.96,29.65,8,1,8,0.01
2014-11-28,34.9,27.4,20.3,29.4,23.4,16.4,99,86,64,30.16,29.93,15,3,15,0.05
2014-11-29,33.1,24.2,15.3,21.2,16.8,12.9,93,75,48,30.29,30.15,8,2,8,0.00
2014-11-30,52.5,39.2,28.0,41.9,33.4,21.1,95,81,57,30.19,29.96,13,3,13,0.27
2014-12-1,57.7,46.6,35.2,46.6,39.5,27.9,92,77,64,30.40,29.93,12,3,14,0.00
2014-12-2,35.2,32.1,29.3,32.5,23.8,16.4,99,72,56,30.67,30.35,11,2,11,0.00
2014-12-3,46.6,38.2,32.4,46.1,36.9,26.0,99,95,64,30.34,29.80,21,4,21,0.58
2014-12-4,42.6,33.5,24.3,26.9,22.2,16.3,81,65,43,30.51,30.03,14,3,14,0.00
2014-12-5,37.0,28.0,19.8,30.7,22.4,14.9,99,80,63,30.64,30.39,8,2,8,0.00
2014-12-6,36.3,34.2,31.1,36.1,33.9,30.9,99,99,99,30.39,30.10,8,1,8,1.04
2014-12-7,35.4,29.1,17.2,34.6,15.4,0.9,99,60,31,30.65,30.20,16,5,16,0.02
2014-12-8,23.4,19.0,14.0,20.5,8.7,-3.9,90,65,40,30.73,30.47,10,4,10,0.00
2014-12-9,39.4,32.9,23.0,39.1,32.5,20.5,99,98,91,30.47,29.50,18,5,18,1.51
2014-12-10,38.3,36.9,36.0,38.0,36.6,35.7,99,99,99,29.54,29.38,14,4,14,0.27
2014-12-11,36.1,33.2,29.8,35.9,32.9,29.6,99,99,99,29.72,29.37,11,2,11,0.07
2014-12-12,37.8,32.2,27.7,31.4,29.3,27.4,99,89,74,29.83,29.72,10,2,11,0.02
2014-12-13,40.3,33.8,29.3,28.6,26.8,25.3,87,76,60,29.81,29.72,13,5,16,0.00
2014-12-14,43.2,33.9,28.8,29.2,27.4,25.5,93,78,55,29.87,29.72,13,4,13,0.00
2014-12-15,41.4,32.8,28.0,32.2,27.6,24.7,98,82,57,30.11,29.85,8,2,8,0.00
2014-12-16,38.3,34.5,28.9,37.1,32.5,26.1,99,92,84,30.11,29.88,3,1,4,0.02
2014-12-17,46.6,40.3,35.8,46.3,39.3,34.6,99,97,86,29.88,29.64,13,4,13,0.38
2014-12-18,42.4,37.6,33.6,36.7,31.9,27.7,99,80,65,29.81,29.65,17,5,17,0.04
2014-12-19,35.2,31.3,25.3,27.7,23.4,20.5,84,73,60,30.10,29.80,14,4,14,0.00
2014-12-20,33.8,28.6,21.7,27.3,23.1,19.6,92,80,67,30.27,30.10,7,2,7,0.00
2014-12-21,34.2,30.9,28.0,29.8,26.8,23.3,94,85,75,30.32,30.23,8,2,8,0.00
2014-12-22,39.2,34.8,30.9,36.4,32.6,28.5,99,92,78,30.35,30.23,6,2,6,0.02
2014-12-23,43.2,39.4,35.6,42.9,39.2,35.3,99,99,99,30.24,30.12,9,2,9,0.21
2014-12-24,41.2,39.6,37.9,40.7,39.3,37.7,99,99,99,30.12,29.50,8,2,8,0.35
2014-12-25,57.2,47.1,39.4,56.9,39.5,29.0,99,77,49,29.91,29.40,24,5,24,0.07
2014-12-26,48.2,40.2,35.1,34.1,30.5,28.6,83,69,52,30.11,29.91,17,3,17,0.00
2014-12-27,51.8,40.8,33.3,36.2,32.8,28.8,86,75,52,30.16,29.95,10,3,10,0.00
2014-12-28,51.6,44.2,36.3,46.0,36.1,28.8,93,74,66,29.95,29.69,13,4,13,0.02
2014-12-29,40.5,32.9,25.7,28.8,19.6,10.7,84,60,37,30.17,29.93,12,2,12,0.00
2014-12-30,27.9,21.8,17.2,12.3,3.7,-8.5,72,48,23,30.30,30.16,14,3,14,0.00
2014-12-31,27.9,19.4,13.3,10.1,4.0,-1.4,68,53,30,30.26,30.05,14,3,14,0.00
2015-1-1,31.6,23.6,14.0,11.6,6.1,2.1,71,50,30,30.05,29.84,16,4,17,0.00
2015-1-2,37.6,31.2,25.9,17.9,13.7,8.1,58,49,40,30.40,29.86,18,4,18,0.00